Pagrindinis puslapis
METAR-TAF:

METAR-TAF

Oro uostai :

Marianhamina, Suomija

platuma: 60-07N, ilguma: 019-54E, Aukštis: 6 m

Dabartinis oras

Ataskaita buvo paskelbta 50 minutes, ne 08:20 UTC
Vėjas 8 kt iš Šiaurės/Šiaurės Vakarų, svyruoja nuo Vakarų/Šiaurės Vakarų ir Šiaurės
Temperatūra 21°C
Drėgmė 64%
Slėgis 997 hPa
Matomumas 10 km arba daugiau
Mažai debesys ne aukštis 2500 ft

METAR: EFMA 310820Z 33008KT 300V360 9999 FEW025 21/14 Q0997

Laikas: 12:10 (09:10 UTC)

Prognozė

Ataskaita buvo paskelbta 38 minutes, ne 08:32 UTC
Prognozė galioja nuo 31 metu 09 UTC su 31 metu 18 UTC
Vėjas 8 kt iš Šiaurės/Šiaurės Vakarų
Matomumas 10 km arba daugiau
Mažai debesys ne aukštis 2500 ft
Tapsmas
nuo 31 metu 14 UTC su 31 metu 16 UTC
Vėjas 10 kt iš Pietų/Pietvakarių
Laikinai
nuo 31 metu 16 UTC su 31 metu 18 UTC
Išsisklaidę debesys ne aukštis 2500 ft, Liūtiniai kamuoliniai debesys.

TAF: EFMA 310832Z 3109/3118 33008KT 9999 FEW025 BECMG 3114/3116 20010KT TEMPO 3116/3118 SCT025CB

Orai ataskaitas ir orų prognozės (METAR, TAF).

turimą stotys yra geltonos ir raudonos taškus žemėlapyje.

Perkelti pele per norėdami pamatyti stoties vardą.

Tada spustelėkite, norėdami matyti oro stebėjimo ir prognozės.

Norėdami pakeisti žemėlapį: spustelėkite ant žalios mygtukų su juodo kryžiaus žemyn,; žalią mygtuką su brūkšneliu, jei norite nutolinti; arba žalių rodyklių gretimoms žemėlapius.


METAR-TAF: